sensor_id;sensor_type;location;lat;lon;timestamp;pressure;altitude;pressure_sealevel;temperature;humidity
72896;BME280;61036;53.224;6.554;2023-07-09T00:01:54;101747.94;;;28.08;100.00
72896;BME280;61036;53.224;6.554;2023-07-09T00:04:20;101750.03;;;27.99;100.00
72896;BME280;61036;53.224;6.554;2023-07-09T00:06:45;101754.50;;;27.94;100.00
72896;BME280;61036;53.224;6.554;2023-07-09T00:09:19;101743.09;;;28.37;100.00
72896;BME280;61036;53.224;6.554;2023-07-09T00:11:46;101748.78;;;28.02;100.00
72896;BME280;61036;53.224;6.554;2023-07-09T00:14:14;101752.03;;;28.25;100.00
72896;BME280;61036;53.224;6.554;2023-07-09T00:16:41;101756.69;;;28.18;100.00
72896;BME280;61036;53.224;6.554;2023-07-09T00:19:17;101753.31;;;28.30;100.00
72896;BME280;61036;53.224;6.554;2023-07-09T00:21:45;101755.44;;;28.21;100.00
72896;BME280;61036;53.224;6.554;2023-07-09T00:24:12;101757.78;;;28.31;100.00
72896;BME280;61036;53.224;6.554;2023-07-09T00:26:38;101751.16;;;28.12;100.00
72896;BME280;61036;53.224;6.554;2023-07-09T00:29:11;101753.56;;;28.35;100.00
72896;BME280;61036;53.224;6.554;2023-07-09T00:31:39;101759.38;;;27.92;100.00
72896;BME280;61036;53.224;6.554;2023-07-09T00:34:09;101755.44;;;28.21;100.00
72896;BME280;61036;53.224;6.554;2023-07-09T00:36:37;101757.13;;;28.22;100.00
72896;BME280;61036;53.224;6.554;2023-07-09T00:39:03;101754.50;;;27.94;100.00
72896;BME280;61036;53.224;6.554;2023-07-09T00:41:36;101750.81;;;28.48;100.00
72896;BME280;61036;53.224;6.554;2023-07-09T00:44:28;101753.38;;;28.76;100.00
72896;BME280;61036;53.224;6.554;2023-07-09T00:49:36;101752.28;;;28.37;100.00
72896;BME280;61036;53.224;6.554;2023-07-09T00:52:35;101745.66;;;28.38;100.00
72896;BME280;61036;53.224;6.554;2023-07-09T00:55:12;101749.13;;;28.47;100.00
72896;BME280;61036;53.224;6.554;2023-07-09T00:57:40;101747.72;;;28.10;100.00
72896;BME280;61036;53.224;6.554;2023-07-09T01:00:10;101743.94;;;28.31;100.00
72896;BME280;61036;53.224;6.554;2023-07-09T01:02:39;101745.19;;;28.21;100.00
72896;BME280;61036;53.224;6.554;2023-07-09T01:05:10;101743.06;;;28.30;100.00
72896;BME280;61036;53.224;6.554;2023-07-09T01:07:38;101741.75;;;28.13;100.00
72896;BME280;61036;53.224;6.554;2023-07-09T01:10:05;101743.72;;;28.25;100.00
72896;BME280;61036;53.224;6.554;2023-07-09T01:12:31;101738.53;;;28.02;100.00
72896;BME280;61036;53.224;6.554;2023-07-09T01:14:57;101746.84;;;27.96;100.00
72896;BME280;61036;53.224;6.554;2023-07-09T01:17:27;101755.44;;;28.21;100.00
72896;BME280;61036;53.224;6.554;2023-07-09T01:19:54;101752.66;;;28.14;100.00
72896;BME280;61036;53.224;6.554;2023-07-09T01:22:21;101753.50;;;28.21;100.00
72896;BME280;61036;53.224;6.554;2023-07-09T01:27:25;101748.38;;;28.25;100.00
72896;BME280;61036;53.224;6.554;2023-07-09T01:29:53;101750.44;;;27.90;100.00
72896;BME280;61036;53.224;6.554;2023-07-09T01:32:22;101757.28;;;28.00;100.00
72896;BME280;61036;53.224;6.554;2023-07-09T01:34:51;101750.47;;;27.96;100.00
72896;BME280;61036;53.224;6.554;2023-07-09T01:37:23;101744.69;;;27.91;100.00
72896;BME280;61036;53.224;6.554;2023-07-09T01:39:50;101743.56;;;27.79;100.00
72896;BME280;61036;53.224;6.554;2023-07-09T01:42:18;101739.66;;;27.67;100.00
72896;BME280;61036;53.224;6.554;2023-07-09T01:44:44;101746.03;;;27.67;100.00
72896;BME280;61036;53.224;6.554;2023-07-09T01:47:11;101748.81;;;27.67;100.00
72896;BME280;61036;53.224;6.554;2023-07-09T01:49:37;101745.13;;;27.53;100.00
72896;BME280;61036;53.224;6.554;2023-07-09T01:52:06;101748.06;;;27.80;100.00
72896;BME280;61036;53.224;6.554;2023-07-09T01:54:34;101747.09;;;27.59;100.00
72896;BME280;61036;53.224;6.554;2023-07-09T01:57:19;101741.13;;;28.04;100.00
72896;BME280;61036;53.224;6.554;2023-07-09T01:59:45;101741.97;;;27.56;100.00
72896;BME280;61036;53.224;6.554;2023-07-09T02:02:11;101747.09;;;27.59;100.00
72896;BME280;61036;53.224;6.554;2023-07-09T02:04:45;101741.22;;;27.83;100.00
72896;BME280;61036;53.224;6.554;2023-07-09T02:07:11;101747.59;;;27.35;100.00
72896;BME280;61036;53.224;6.554;2023-07-09T02:09:37;101747.97;;;27.67;100.00
72896;BME280;61036;53.224;6.554;2023-07-09T02:12:02;101737.69;;;27.54;100.00
72896;BME280;61036;53.224;6.554;2023-07-09T02:14:29;101741.28;;;27.48;100.00
72896;BME280;61036;53.224;6.554;2023-07-09T02:16:54;101743.41;;;27.52;100.00
72896;BME280;61036;53.224;6.554;2023-07-09T02:19:20;101738.09;;;27.51;100.00
72896;BME280;61036;53.224;6.554;2023-07-09T02:21:46;101741.66;;;27.38;100.00
72896;BME280;61036;53.224;6.554;2023-07-09T02:24:11;101744.16;;;27.33;100.00
72896;BME280;61036;53.224;6.554;2023-07-09T02:26:36;101743.31;;;27.32;100.00
72896;BME280;61036;53.224;6.554;2023-07-09T02:29:02;101739.59;;;27.19;100.00
72896;BME280;61036;53.224;6.554;2023-07-09T02:31:28;101730.38;;;27.11;100.00
72896;BME280;61036;53.224;6.554;2023-07-09T02:33:58;101733.63;;;27.50;100.00
72896;BME280;61036;53.224;6.554;2023-07-09T02:36:24;101731.09;;;27.20;100.00
72896;BME280;61036;53.224;6.554;2023-07-09T02:38:52;101733.94;;;27.33;100.00
72896;BME280;61036;53.224;6.554;2023-07-09T02:41:17;101739.28;;;27.07;100.00
72896;BME280;61036;53.224;6.554;2023-07-09T02:43:43;101734.13;;;27.04;100.00
72896;BME280;61036;53.224;6.554;2023-07-09T02:46:09;101733.44;;;26.95;100.00
72896;BME280;61036;53.224;6.554;2023-07-09T02:48:35;101725.13;;;26.95;100.00
72896;BME280;61036;53.224;6.554;2023-07-09T02:51:00;101733.69;;;27.00;100.00
72896;BME280;61036;53.224;6.554;2023-07-09T02:53:27;101735.53;;;27.15;100.00
72896;BME280;61036;53.224;6.554;2023-07-09T02:55:52;101729.09;;;26.86;100.00
72896;BME280;61036;53.224;6.554;2023-07-09T02:58:18;101733.13;;;26.83;100.00
72896;BME280;61036;53.224;6.554;2023-07-09T03:00:44;101738.88;;;26.82;100.00
72896;BME280;61036;53.224;6.554;2023-07-09T03:03:17;101733.84;;;26.92;100.00
72896;BME280;61036;53.224;6.554;2023-07-09T03:05:45;101730.97;;;27.35;100.00
72896;BME280;61036;53.224;6.554;2023-07-09T03:08:11;101736.16;;;27.17;100.00
72896;BME280;61036;53.224;6.554;2023-07-09T03:10:37;101738.75;;;27.18;100.00
72896;BME280;61036;53.224;6.554;2023-07-09T03:13:03;101742.59;;;26.96;100.00
72896;BME280;61036;53.224;6.554;2023-07-09T03:15:28;101737.06;;;27.17;100.00
72896;BME280;61036;53.224;6.554;2023-07-09T03:17:54;101739.72;;;26.54;100.00
72896;BME280;61036;53.224;6.554;2023-07-09T03:20:19;101737.34;;;26.51;100.00
72896;BME280;61036;53.224;6.554;2023-07-09T03:22:44;101739.94;;;26.59;100.00
72896;BME280;61036;53.224;6.554;2023-07-09T03:25:10;101743.69;;;27.01;100.00
72896;BME280;61036;53.224;6.554;2023-07-09T03:27:35;101741.81;;;27.02;100.00
72896;BME280;61036;53.224;6.554;2023-07-09T03:30:01;101745.66;;;27.29;100.00
72896;BME280;61036;53.224;6.554;2023-07-09T03:32:27;101746.25;;;27.24;100.00
72896;BME280;61036;53.224;6.554;2023-07-09T03:34:52;101747.63;;;26.85;100.00
72896;BME280;61036;53.224;6.554;2023-07-09T03:37:18;101748.59;;;26.99;100.00
72896;BME280;61036;53.224;6.554;2023-07-09T03:39:46;101745.56;;;27.50;100.00
72896;BME280;61036;53.224;6.554;2023-07-09T03:42:12;101744.16;;;27.33;100.00
72896;BME280;61036;53.224;6.554;2023-07-09T03:44:38;101743.22;;;27.54;100.00
72896;BME280;61036;53.224;6.554;2023-07-09T03:47:03;101748.19;;;26.53;100.00
72896;BME280;61036;53.224;6.554;2023-07-09T03:49:29;101750.69;;;27.19;100.00
72896;BME280;61036;53.224;6.554;2023-07-09T03:51:54;101745.06;;;27.40;100.00
72896;BME280;61036;53.224;6.554;2023-07-09T03:54:20;101742.00;;;27.00;100.00
72896;BME280;61036;53.224;6.554;2023-07-09T03:56:45;101743.56;;;27.09;100.00
72896;BME280;61036;53.224;6.554;2023-07-09T03:59:11;101737.50;;;27.21;100.00
72896;BME280;61036;53.224;6.554;2023-07-09T04:01:37;101745.13;;;26.90;100.00
72896;BME280;61036;53.224;6.554;2023-07-09T04:04:02;101740.56;;;27.32;100.00
72896;BME280;61036;53.224;6.554;2023-07-09T04:06:28;101745.44;;;27.02;100.00
72896;BME280;61036;53.224;6.554;2023-07-09T04:08:54;101747.78;;;27.33;100.00
72896;BME280;61036;53.224;6.554;2023-07-09T04:11:20;101741.78;;;27.23;100.00
72896;BME280;61036;53.224;6.554;2023-07-09T04:13:45;101739.84;;;27.24;100.00
72896;BME280;61036;53.224;6.554;2023-07-09T04:16:11;101737.41;;;27.42;100.00
72896;BME280;61036;53.224;6.554;2023-07-09T04:18:37;101733.50;;;27.30;100.00
72896;BME280;61036;53.224;6.554;2023-07-09T04:21:02;101736.13;;;27.38;100.00
72896;BME280;61036;53.224;6.554;2023-07-09T04:23:28;101741.44;;;26.83;100.00
72896;BME280;61036;53.224;6.554;2023-07-09T04:25:53;101741.41;;;26.34;100.00
72896;BME280;61036;53.224;6.554;2023-07-09T04:28:19;101740.97;;;27.29;100.00
72896;BME280;61036;53.224;6.554;2023-07-09T04:30:49;101744.75;;;28.04;100.00
72896;BME280;61036;53.224;6.554;2023-07-09T04:33:16;101746.16;;;27.80;100.00
72896;BME280;61036;53.224;6.554;2023-07-09T04:35:46;101753.97;;;27.07;100.00
72896;BME280;61036;53.224;6.554;2023-07-09T04:38:13;101747.50;;;27.56;100.00
72896;BME280;61036;53.224;6.554;2023-07-09T04:40:39;101743.75;;;27.77;100.00
72896;BME280;61036;53.224;6.554;2023-07-09T04:43:04;101752.19;;;27.21;100.00
72896;BME280;61036;53.224;6.554;2023-07-09T04:45:30;101750.38;;;27.35;100.00
72896;BME280;61036;53.224;6.554;2023-07-09T04:47:55;101742.19;;;27.62;100.00
72896;BME280;61036;53.224;6.554;2023-07-09T04:50:21;101731.38;;;27.32;100.00
72896;BME280;61036;53.224;6.554;2023-07-09T04:52:47;101737.38;;;27.77;100.00
72896;BME280;61036;53.224;6.554;2023-07-09T04:55:13;101739.75;;;27.45;100.00
72896;BME280;61036;53.224;6.554;2023-07-09T04:57:38;101746.06;;;27.74;100.00
72896;BME280;61036;53.224;6.554;2023-07-09T05:00:05;101747.22;;;27.45;100.00
72896;BME280;61036;53.224;6.554;2023-07-09T05:02:31;101756.81;;;27.49;100.00
72896;BME280;61036;53.224;6.554;2023-07-09T05:04:57;101747.56;;;27.70;100.00
72896;BME280;61036;53.224;6.554;2023-07-09T05:07:22;101749.63;;;28.02;100.00
72896;BME280;61036;53.224;6.554;2023-07-09T05:09:48;101757.25;;;27.52;100.00
72896;BME280;61036;53.224;6.554;2023-07-09T05:12:13;101756.31;;;28.28;100.00
72896;BME280;61036;53.224;6.554;2023-07-09T05:14:39;101754.44;;;28.42;100.00
72896;BME280;61036;53.224;6.554;2023-07-09T05:17:05;101749.34;;;28.59;100.00
72896;BME280;61036;53.224;6.554;2023-07-09T05:19:31;101757.66;;;28.52;100.00
72896;BME280;61036;53.224;6.554;2023-07-09T05:21:57;101754.28;;;28.77;100.00
72896;BME280;61036;53.224;6.554;2023-07-09T05:24:22;101753.41;;;29.16;98.03
72896;BME280;61036;53.224;6.554;2023-07-09T05:26:48;101754.28;;;29.10;99.37
72896;BME280;61036;53.224;6.554;2023-07-09T05:29:13;101756.81;;;29.25;100.00
72896;BME280;61036;53.224;6.554;2023-07-09T05:31:39;101754.22;;;29.30;97.23
72896;BME280;61036;53.224;6.554;2023-07-09T05:34:07;101752.22;;;29.70;99.78
72896;BME280;61036;53.224;6.554;2023-07-09T05:36:33;101752.53;;;28.95;98.01
72896;BME280;61036;53.224;6.554;2023-07-09T05:38:58;101756.41;;;28.68;99.11
72896;BME280;61036;53.224;6.554;2023-07-09T05:41:24;101744.13;;;29.62;96.41
72896;BME280;61036;53.224;6.554;2023-07-09T05:43:50;101743.56;;;29.92;93.08
72896;BME280;61036;53.224;6.554;2023-07-09T05:46:17;101745.94;;;29.10;96.48
72896;BME280;61036;53.224;6.554;2023-07-09T05:48:42;101751.19;;;29.45;97.25
72896;BME280;61036;53.224;6.554;2023-07-09T05:51:08;101755.34;;;29.94;92.53
72896;BME280;61036;53.224;6.554;2023-07-09T05:53:35;101749.25;;;30.10;93.48
72896;BME280;61036;53.224;6.554;2023-07-09T05:56:00;101758.84;;;30.14;91.97
72896;BME280;61036;53.224;6.554;2023-07-09T05:58:26;101751.03;;;29.39;98.17
72896;BME280;61036;53.224;6.554;2023-07-09T06:00:52;101752.78;;;28.74;99.28
72896;BME280;61036;53.224;6.554;2023-07-09T06:03:26;101752.75;;;29.21;100.00
72896;BME280;61036;53.224;6.554;2023-07-09T06:05:52;101763.31;;;28.11;100.00
72896;BME280;61036;53.224;6.554;2023-07-09T06:08:20;101757.03;;;29.03;100.00
72896;BME280;61036;53.224;6.554;2023-07-09T06:10:53;101763.63;;;29.35;100.00
72896;BME280;61036;53.224;6.554;2023-07-09T06:13:20;101764.47;;;30.01;96.16
72896;BME280;61036;53.224;6.554;2023-07-09T06:15:47;101771.41;;;29.85;98.89
72896;BME280;61036;53.224;6.554;2023-07-09T06:18:13;101772.84;;;30.01;100.00
72896;BME280;61036;53.224;6.554;2023-07-09T06:20:38;101770.84;;;30.08;100.00
72896;BME280;61036;53.224;6.554;2023-07-09T06:23:04;101771.75;;;30.02;97.60
72896;BME280;61036;53.224;6.554;2023-07-09T06:25:29;101773.72;;;30.40;97.84
72896;BME280;61036;53.224;6.554;2023-07-09T06:27:57;101774.91;;;30.12;96.29
72896;BME280;61036;53.224;6.554;2023-07-09T06:30:22;101778.31;;;30.52;94.23
72896;BME280;61036;53.224;6.554;2023-07-09T06:32:48;101782.38;;;30.88;96.38
72896;BME280;61036;53.224;6.554;2023-07-09T06:35:13;101786.25;;;30.87;93.88
72896;BME280;61036;53.224;6.554;2023-07-09T06:37:39;101788.34;;;30.92;94.52
72896;BME280;61036;53.224;6.554;2023-07-09T06:40:05;101774.41;;;30.92;94.97
72896;BME280;61036;53.224;6.554;2023-07-09T06:42:33;101776.59;;;30.90;94.97
72896;BME280;61036;53.224;6.554;2023-07-09T06:45:12;101786.84;;;30.89;96.33
72896;BME280;61036;53.224;6.554;2023-07-09T06:47:38;101787.88;;;30.95;95.78
72896;BME280;61036;53.224;6.554;2023-07-09T06:50:04;101779.53;;;30.95;94.42
72896;BME280;61036;53.224;6.554;2023-07-09T06:52:29;101783.56;;;30.67;95.25
72896;BME280;61036;53.224;6.554;2023-07-09T06:54:55;101788.09;;;31.18;94.97
72896;BME280;61036;53.224;6.554;2023-07-09T06:57:20;101783.34;;;30.37;99.28
72896;BME280;61036;53.224;6.554;2023-07-09T06:59:46;101791.38;;;30.20;98.94
72896;BME280;61036;53.224;6.554;2023-07-09T07:02:11;101787.22;;;31.43;94.68
72896;BME280;61036;53.224;6.554;2023-07-09T07:04:37;101789.09;;;31.49;91.79
72896;BME280;61036;53.224;6.554;2023-07-09T07:07:02;101799.41;;;31.67;93.96
72896;BME280;61036;53.224;6.554;2023-07-09T07:09:28;101791.81;;;32.11;91.93
72896;BME280;61036;53.224;6.554;2023-07-09T07:11:53;101794.59;;;32.11;90.41
72896;BME280;61036;53.224;6.554;2023-07-09T07:14:19;101798.44;;;32.10;93.40
72896;BME280;61036;53.224;6.554;2023-07-09T07:16:44;101798.00;;;31.95;94.25
72896;BME280;61036;53.224;6.554;2023-07-09T07:19:10;101798.09;;;32.37;88.11
72896;BME280;61036;53.224;6.554;2023-07-09T07:21:35;101798.34;;;32.35;90.51
72896;BME280;61036;53.224;6.554;2023-07-09T07:24:01;101796.94;;;32.44;90.30
72896;BME280;61036;53.224;6.554;2023-07-09T07:26:26;101807.22;;;32.44;90.51
72896;BME280;61036;53.224;6.554;2023-07-09T07:28:51;101800.81;;;32.25;94.86
72896;BME280;61036;53.224;6.554;2023-07-09T07:31:18;101797.16;;;32.96;86.88
72896;BME280;61036;53.224;6.554;2023-07-09T07:33:43;101800.97;;;33.02;86.85
72896;BME280;61036;53.224;6.554;2023-07-09T07:36:09;101795.88;;;33.34;86.41
72896;BME280;61036;53.224;6.554;2023-07-09T07:38:35;101803.22;;;32.82;88.48
72896;BME280;61036;53.224;6.554;2023-07-09T07:41:01;101801.19;;;32.89;93.87
72896;BME280;61036;53.224;6.554;2023-07-09T07:43:27;101800.00;;;33.08;90.26
72896;BME280;61036;53.224;6.554;2023-07-09T07:45:53;101805.66;;;32.90;91.86
72896;BME280;61036;53.224;6.554;2023-07-09T07:48:18;101813.44;;;32.46;95.10
72896;BME280;61036;53.224;6.554;2023-07-09T07:50:45;101806.81;;;33.12;94.74
72896;BME280;61036;53.224;6.554;2023-07-09T07:53:11;101814.34;;;33.23;93.20
72896;BME280;61036;53.224;6.554;2023-07-09T07:55:37;101811.75;;;32.87;93.98
72896;BME280;61036;53.224;6.554;2023-07-09T07:58:03;101811.59;;;32.82;97.10
72896;BME280;61036;53.224;6.554;2023-07-09T08:00:30;101806.25;;;32.80;97.37
72896;BME280;61036;53.224;6.554;2023-07-09T08:02:55;101819.63;;;32.90;94.28
72896;BME280;61036;53.224;6.554;2023-07-09T08:05:21;101814.97;;;33.26;93.77
72896;BME280;61036;53.224;6.554;2023-07-09T08:07:48;101811.63;;;33.87;93.62
72896;BME280;61036;53.224;6.554;2023-07-09T08:10:13;101807.44;;;34.13;94.96
72896;BME280;61036;53.224;6.554;2023-07-09T08:12:41;101812.78;;;33.63;94.32
72896;BME280;61036;53.224;6.554;2023-07-09T08:15:07;101810.06;;;33.91;97.97
72896;BME280;61036;53.224;6.554;2023-07-09T08:17:33;101804.25;;;35.13;89.12
72896;BME280;61036;53.224;6.554;2023-07-09T08:20:01;101801.03;;;35.04;89.65
72896;BME280;61036;53.224;6.554;2023-07-09T08:22:26;101803.53;;;34.14;90.16
72896;BME280;61036;53.224;6.554;2023-07-09T08:24:52;101804.50;;;34.20;90.76
72896;BME280;61036;53.224;6.554;2023-07-09T08:27:18;101808.09;;;34.04;94.96
72896;BME280;61036;53.224;6.554;2023-07-09T08:29:44;101798.63;;;34.79;89.26
72896;BME280;61036;53.224;6.554;2023-07-09T08:32:11;101803.13;;;34.97;91.82
72896;BME280;61036;53.224;6.554;2023-07-09T08:34:38;101800.53;;;35.46;86.06
72896;BME280;61036;53.224;6.554;2023-07-09T08:37:05;101808.22;;;36.66;82.49
72896;BME280;61036;53.224;6.554;2023-07-09T08:39:31;101795.69;;;36.02;80.61
72896;BME280;61036;53.224;6.554;2023-07-09T08:42:03;101797.50;;;35.31;85.59
72896;BME280;61036;53.224;6.554;2023-07-09T08:50:41;101807.38;;;38.81;77.38
72896;BME280;61036;53.224;6.554;2023-07-09T08:53:38;101804.25;;;39.54;71.99
72896;BME280;61036;53.224;6.554;2023-07-09T08:56:09;101804.56;;;39.17;74.86
72896;BME280;61036;53.224;6.554;2023-07-09T08:58:36;101796.31;;;37.55;77.58
72896;BME280;61036;53.224;6.554;2023-07-09T09:01:14;101804.59;;;38.96;73.89
72896;BME280;61036;53.224;6.554;2023-07-09T09:04:02;101803.84;;;37.97;75.74
72896;BME280;61036;53.224;6.554;2023-07-09T09:06:30;101803.84;;;38.02;76.90
72896;BME280;61036;53.224;6.554;2023-07-09T09:14:37;101798.91;;;37.72;80.57
72896;BME280;61036;53.224;6.554;2023-07-09T09:17:11;101802.78;;;37.61;78.34
72896;BME280;61036;53.224;6.554;2023-07-09T09:22:11;101794.84;;;38.00;76.52
72896;BME280;61036;53.224;6.554;2023-07-09T09:24:56;101797.44;;;38.22;78.68
72896;BME280;61036;53.224;6.554;2023-07-09T09:27:24;101801.75;;;37.77;77.90
72896;BME280;61036;53.224;6.554;2023-07-09T09:29:49;101798.03;;;37.66;79.56
72896;BME280;61036;53.224;6.554;2023-07-09T09:32:30;101802.97;;;37.96;78.91
72896;BME280;61036;53.224;6.554;2023-07-09T09:34:56;101806.22;;;37.68;78.30
72896;BME280;61036;53.224;6.554;2023-07-09T09:37:32;101804.81;;;38.54;77.98
72896;BME280;61036;53.224;6.554;2023-07-09T09:40:00;101801.78;;;38.86;77.21
72896;BME280;61036;53.224;6.554;2023-07-09T09:42:25;101808.56;;;37.01;79.79
72896;BME280;61036;53.224;6.554;2023-07-09T09:44:54;101814.44;;;37.37;81.67
72896;BME280;61036;53.224;6.554;2023-07-09T09:47:25;101815.66;;;37.51;81.94
72896;BME280;61036;53.224;6.554;2023-07-09T09:49:52;101810.38;;;38.13;81.35
72896;BME280;61036;53.224;6.554;2023-07-09T09:52:18;101813.19;;;38.13;81.15
72896;BME280;61036;53.224;6.554;2023-07-09T09:54:51;101818.81;;;38.18;78.71
72896;BME280;61036;53.224;6.554;2023-07-09T09:57:21;101824.09;;;37.46;80.20
72896;BME280;61036;53.224;6.554;2023-07-09T09:59:48;101827.56;;;37.64;80.85
72896;BME280;61036;53.224;6.554;2023-07-09T10:02:19;101822.91;;;38.78;79.64
72896;BME280;61036;53.224;6.554;2023-07-09T10:04:46;101819.47;;;38.51;77.22
72896;BME280;61036;53.224;6.554;2023-07-09T10:07:29;101819.00;;;39.00;76.32
72896;BME280;61036;53.224;6.554;2023-07-09T10:09:57;101821.38;;;38.19;76.00
72896;BME280;61036;53.224;6.554;2023-07-09T10:12:49;101818.41;;;39.39;74.60
72896;BME280;61036;53.224;6.554;2023-07-09T10:15:30;101830.19;;;39.61;75.47
72896;BME280;61036;53.224;6.554;2023-07-09T10:21:05;101831.38;;;39.14;74.29
72896;BME280;61036;53.224;6.554;2023-07-09T10:23:37;101836.28;;;37.20;77.73
72896;BME280;61036;53.224;6.554;2023-07-09T10:26:44;101835.91;;;38.95;78.80
72896;BME280;61036;53.224;6.554;2023-07-09T10:29:28;101835.00;;;38.69;76.93
72896;BME280;61036;53.224;6.554;2023-07-09T10:32:23;101834.63;;;38.29;75.09
72896;BME280;61036;53.224;6.554;2023-07-09T10:40:41;101820.78;;;38.12;82.05
72896;BME280;61036;53.224;6.554;2023-07-09T10:43:17;101815.19;;;37.22;81.51
72896;BME280;61036;53.224;6.554;2023-07-09T10:45:54;101812.75;;;38.52;80.26
72896;BME280;61036;53.224;6.554;2023-07-09T10:51:17;101815.75;;;38.35;77.85
72896;BME280;61036;53.224;6.554;2023-07-09T10:56:34;101806.47;;;38.24;80.06
72896;BME280;61036;53.224;6.554;2023-07-09T11:01:47;101809.09;;;38.67;75.84
72896;BME280;61036;53.224;6.554;2023-07-09T11:04:34;101813.22;;;38.28;79.24
72896;BME280;61036;53.224;6.554;2023-07-09T11:07:05;101797.66;;;38.00;78.72
72896;BME280;61036;53.224;6.554;2023-07-09T11:09:34;101792.75;;;38.63;78.65
72896;BME280;61036;53.224;6.554;2023-07-09T11:12:08;101789.25;;;38.26;79.40
72896;BME280;61036;53.224;6.554;2023-07-09T11:14:40;101781.00;;;37.93;76.87
72896;BME280;61036;53.224;6.554;2023-07-09T11:17:15;101776.91;;;37.59;79.05
72896;BME280;61036;53.224;6.554;2023-07-09T11:19:44;101774.28;;;37.04;77.42
72896;BME280;61036;53.224;6.554;2023-07-09T11:27:30;101773.47;;;37.46;75.38
72896;BME280;61036;53.224;6.554;2023-07-09T11:30:02;101769.94;;;37.82;75.44
72896;BME280;61036;53.224;6.554;2023-07-09T11:32:29;101781.59;;;38.06;74.87
72896;BME280;61036;53.224;6.554;2023-07-09T11:35:06;101775.75;;;38.33;76.57
72896;BME280;61036;53.224;6.554;2023-07-09T11:37:32;101767.41;;;37.80;74.83
72896;BME280;61036;53.224;6.554;2023-07-09T11:40:06;101767.66;;;38.67;73.97
72896;BME280;61036;53.224;6.554;2023-07-09T11:42:50;101762.00;;;38.77;74.61
72896;BME280;61036;53.224;6.554;2023-07-09T11:45:20;101765.94;;;38.40;74.32
72896;BME280;61036;53.224;6.554;2023-07-09T11:48:26;101771.28;;;38.47;74.81
72896;BME280;61036;53.224;6.554;2023-07-09T11:50:54;101773.06;;;37.90;74.19
72896;BME280;61036;53.224;6.554;2023-07-09T11:53:34;101766.44;;;37.54;76.18
72896;BME280;61036;53.224;6.554;2023-07-09T11:56:01;101765.59;;;38.27;74.36
72896;BME280;61036;53.224;6.554;2023-07-09T11:58:27;101765.38;;;38.54;76.02
72896;BME280;61036;53.224;6.554;2023-07-09T12:00:57;101763.19;;;37.83;75.40
72896;BME280;61036;53.224;6.554;2023-07-09T12:05:53;101758.38;;;37.73;75.77
72896;BME280;61036;53.224;6.554;2023-07-09T12:08:29;101771.22;;;38.16;76.51
72896;BME280;61036;53.224;6.554;2023-07-09T12:10:57;101766.09;;;37.45;74.17
72896;BME280;61036;53.224;6.554;2023-07-09T12:13:22;101775.25;;;37.68;78.70
72896;BME280;61036;53.224;6.554;2023-07-09T12:15:48;101764.47;;;37.49;75.74
72896;BME280;61036;53.224;6.554;2023-07-09T12:18:15;101760.38;;;37.88;74.25
72896;BME280;61036;53.224;6.554;2023-07-09T12:20:44;101759.88;;;37.96;72.49
72896;BME280;61036;53.224;6.554;2023-07-09T12:23:27;101755.16;;;38.22;69.89
72896;BME280;61036;53.224;6.554;2023-07-09T12:25:54;101752.75;;;37.73;70.91
72896;BME280;61036;53.224;6.554;2023-07-09T12:28:21;101756.03;;;37.55;71.57
72896;BME280;61036;53.224;6.554;2023-07-09T12:30:49;101756.72;;;37.87;70.23
72896;BME280;61036;53.224;6.554;2023-07-09T12:33:20;101756.56;;;38.19;69.58
72896;BME280;61036;53.224;6.554;2023-07-09T12:35:48;101761.50;;;37.77;71.00
72896;BME280;61036;53.224;6.554;2023-07-09T12:38:24;101754.06;;;38.28;72.02
72896;BME280;61036;53.224;6.554;2023-07-09T12:40:51;101754.84;;;38.08;72.79
72896;BME280;61036;53.224;6.554;2023-07-09T12:43:25;101749.50;;;38.17;68.34
72896;BME280;61036;53.224;6.554;2023-07-09T12:45:52;101739.59;;;37.31;68.25
72896;BME280;61036;53.224;6.554;2023-07-09T12:48:21;101740.84;;;37.56;69.70
72896;BME280;61036;53.224;6.554;2023-07-09T12:50:49;101736.94;;;37.62;69.91
72896;BME280;61036;53.224;6.554;2023-07-09T12:53:17;101737.47;;;37.53;71.24
72896;BME280;61036;53.224;6.554;2023-07-09T12:55:45;101742.34;;;37.84;72.28
72896;BME280;61036;53.224;6.554;2023-07-09T12:58:19;101744.75;;;38.28;68.96
72896;BME280;61036;53.224;6.554;2023-07-09T13:00:50;101733.28;;;37.66;69.80
72896;BME280;61036;53.224;6.554;2023-07-09T13:03:24;101734.31;;;38.13;69.85
72896;BME280;61036;53.224;6.554;2023-07-09T13:08:43;101723.00;;;37.97;68.30
72896;BME280;61036;53.224;6.554;2023-07-09T13:11:16;101723.59;;;38.20;71.74
72896;BME280;61036;53.224;6.554;2023-07-09T13:13:54;101735.28;;;37.71;71.00
72896;BME280;61036;53.224;6.554;2023-07-09T13:16:20;101731.03;;;37.63;73.21
72896;BME280;61036;53.224;6.554;2023-07-09T13:18:45;101729.72;;;37.34;73.99
72896;BME280;61036;53.224;6.554;2023-07-09T13:21:16;101724.97;;;37.39;75.46
72896;BME280;61036;53.224;6.554;2023-07-09T13:23:43;101737.09;;;37.45;75.07
72896;BME280;61036;53.224;6.554;2023-07-09T13:26:08;101742.88;;;37.18;73.74
72896;BME280;61036;53.224;6.554;2023-07-09T13:28:34;101736.91;;;37.57;75.79
72896;BME280;61036;53.224;6.554;2023-07-09T13:31:08;101734.56;;;38.11;76.51
72896;BME280;61036;53.224;6.554;2023-07-09T13:33:35;101731.34;;;37.19;75.42
72896;BME280;61036;53.224;6.554;2023-07-09T13:36:02;101725.44;;;37.73;75.28
72896;BME280;61036;53.224;6.554;2023-07-09T13:38:28;101722.56;;;37.58;74.78
72896;BME280;61036;53.224;6.554;2023-07-09T13:40:56;101721.00;;;37.93;73.86